createdAt,value
2023-05-14T00:01:36.374Z,83.77
2023-05-14T00:04:41.394Z,84.69
2023-05-14T00:07:45.567Z,85.26
2023-05-14T00:11:00.770Z,86.37
2023-05-14T00:14:08.149Z,87.36
2023-05-14T00:17:15.162Z,88.04
2023-05-14T00:20:28.496Z,88.00
2023-05-14T00:24:01.829Z,88.04
2023-05-14T00:31:23.897Z,89.29
2023-05-14T00:35:01.447Z,89.56
2023-05-14T00:38:27.971Z,89.63
2023-05-14T00:42:27.251Z,89.43
2023-05-14T00:45:51.348Z,88.56
2023-05-14T00:49:22.722Z,87.88
2023-05-14T00:52:33.162Z,87.31
2023-05-14T00:55:58.494Z,86.26
2023-05-14T00:59:19.839Z,85.81
2023-05-14T01:02:32.971Z,86.06
2023-05-14T01:06:14.724Z,85.25
2023-05-14T01:09:54.536Z,85.46
2023-05-14T01:13:17.060Z,85.50
2023-05-14T01:16:20.960Z,85.65
2023-05-14T01:19:52.142Z,85.82
2023-05-14T01:22:56.429Z,85.00
2023-05-14T01:26:02.503Z,85.31
2023-05-14T01:29:20.522Z,85.76
2023-05-14T01:32:26.174Z,85.35
2023-05-14T01:35:31.482Z,84.60
2023-05-14T01:38:36.913Z,83.78
2023-05-14T01:41:40.773Z,83.84
2023-05-14T01:44:44.590Z,84.15
2023-05-14T01:47:50.044Z,83.85
2023-05-14T01:50:54.120Z,83.91
2023-05-14T01:53:58.423Z,84.40
2023-05-14T01:57:02.517Z,84.78
2023-05-14T02:00:07.125Z,85.13
2023-05-14T02:03:17.138Z,85.13
2023-05-14T02:06:23.000Z,85.77
2023-05-14T02:09:29.660Z,85.89
2023-05-14T02:12:33.455Z,86.11
2023-05-14T02:15:37.361Z,87.03
2023-05-14T02:18:44.321Z,88.31
2023-05-14T02:21:49.525Z,89.41
2023-05-14T02:24:52.790Z,89.41
2023-05-14T02:27:55.964Z,89.05
2023-05-14T02:31:01.537Z,88.73
2023-05-14T02:34:06.853Z,88.40
2023-05-14T02:37:13.077Z,88.37
2023-05-14T02:40:16.579Z,88.33
2023-05-14T02:43:20.665Z,88.15
2023-05-14T02:46:24.716Z,88.31
2023-05-14T02:49:28.565Z,87.93
2023-05-14T02:52:31.917Z,88.11
2023-05-14T02:55:36.855Z,87.62
2023-05-14T02:58:43.083Z,87.56
2023-05-14T03:01:46.648Z,87.95
2023-05-14T03:04:50.995Z,87.95
2023-05-14T03:07:54.558Z,88.47
2023-05-14T03:10:58.070Z,88.07
2023-05-14T03:14:01.956Z,88.12
2023-05-14T03:17:05.439Z,88.71
2023-05-14T03:20:09.235Z,88.45
2023-05-14T03:23:12.617Z,88.30
2023-05-14T03:26:15.906Z,88.15
2023-05-14T03:29:19.183Z,87.25
2023-05-14T03:32:22.513Z,87.10
2023-05-14T03:35:25.933Z,86.16
2023-05-14T03:38:29.104Z,85.69
2023-05-14T03:41:32.498Z,84.94
2023-05-14T03:44:36.077Z,85.19
2023-05-14T03:47:40.228Z,83.60
2023-05-14T03:50:43.871Z,84.37
2023-05-14T03:53:47.857Z,84.78
2023-05-14T03:56:51.054Z,84.14
2023-05-14T03:59:54.621Z,84.53
2023-05-14T04:02:57.915Z,85.85
2023-05-14T04:06:01.896Z,85.37
2023-05-14T04:09:04.808Z,84.83
2023-05-14T04:12:08.281Z,84.97
2023-05-14T04:15:11.743Z,85.01
2023-05-14T04:18:15.059Z,84.51
2023-05-14T04:21:18.498Z,83.93
2023-05-14T04:24:21.463Z,83.93
2023-05-14T04:27:24.645Z,83.61
2023-05-14T04:30:27.545Z,81.91
2023-05-14T04:33:30.878Z,81.70
2023-05-14T04:36:33.899Z,81.17
2023-05-14T04:39:37.045Z,81.25
2023-05-14T04:42:39.839Z,80.23
2023-05-14T04:45:43.416Z,79.54
2023-05-14T04:48:46.299Z,77.72
2023-05-14T04:51:49.652Z,77.32
2023-05-14T04:54:52.778Z,76.17
2023-05-14T04:57:55.747Z,75.88
2023-05-14T05:00:59.820Z,73.87
2023-05-14T05:04:03.221Z,73.66
2023-05-14T05:07:06.720Z,72.07
2023-05-14T05:10:10.288Z,70.00
2023-05-14T05:13:13.637Z,67.80
2023-05-14T05:16:17.542Z,64.89
2023-05-14T05:19:29.092Z,65.48
2023-05-14T05:22:36.710Z,65.43
2023-05-14T05:25:42.961Z,65.08
2023-05-14T05:28:46.314Z,64.45
2023-05-14T05:31:50.560Z,64.07
2023-05-14T05:34:53.919Z,61.71
2023-05-14T05:38:00.480Z,61.75
2023-05-14T05:41:05.362Z,61.30
2023-05-14T05:44:09.586Z,61.01
2023-05-14T05:47:13.459Z,60.75
2023-05-14T05:50:18.821Z,61.05
2023-05-14T05:53:23.618Z,60.89
2023-05-14T05:56:27.390Z,61.09
2023-05-14T05:59:31.084Z,60.76
2023-05-14T06:02:34.765Z,60.11
2023-05-14T06:05:38.541Z,59.60
2023-05-14T06:08:42.758Z,58.73
2023-05-14T06:11:46.665Z,58.07
2023-05-14T06:14:55.667Z,57.83
2023-05-14T06:17:59.181Z,57.07
2023-05-14T06:21:02.537Z,57.49
2023-05-14T06:24:08.996Z,57.47
2023-05-14T06:27:12.264Z,57.58
2023-05-14T06:30:15.861Z,57.93
2023-05-14T06:33:20.569Z,57.90
2023-05-14T06:36:23.534Z,58.05
2023-05-14T06:39:27.113Z,57.30
2023-05-14T06:42:30.389Z,57.40
2023-05-14T06:45:34.602Z,56.91
2023-05-14T06:48:37.947Z,57.21
2023-05-14T06:51:42.076Z,56.33
2023-05-14T06:54:45.153Z,56.90
2023-05-14T06:57:48.119Z,57.01
2023-05-14T07:00:51.299Z,56.90
2023-05-14T07:03:54.524Z,56.26
2023-05-14T07:06:58.070Z,57.07
2023-05-14T07:10:01.676Z,55.33
2023-05-14T07:13:04.729Z,55.52
2023-05-14T07:16:12.115Z,54.69
2023-05-14T07:19:15.223Z,55.57
2023-05-14T07:22:18.568Z,54.92
2023-05-14T07:25:21.336Z,55.18
2023-05-14T07:28:24.414Z,54.41
2023-05-14T07:31:27.406Z,53.91
2023-05-14T07:34:30.550Z,54.55
2023-05-14T07:37:33.932Z,55.93
2023-05-14T07:40:37.007Z,55.28
2023-05-14T07:43:40.703Z,56.62
2023-05-14T07:46:44.175Z,56.19
2023-05-14T07:49:47.456Z,55.97
2023-05-14T07:52:50.940Z,54.80
2023-05-14T07:55:54.940Z,54.34
2023-05-14T07:58:58.322Z,54.58
2023-05-14T08:02:01.948Z,54.75
2023-05-14T08:05:05.596Z,55.51
2023-05-14T08:08:09.383Z,53.87
2023-05-14T08:11:12.918Z,54.03
2023-05-14T08:14:16.257Z,54.84
2023-05-14T08:17:19.949Z,55.02
2023-05-14T08:20:24.600Z,53.92
2023-05-14T08:23:28.661Z,54.02
2023-05-14T08:26:32.132Z,53.82
2023-05-14T08:29:35.624Z,53.66
2023-05-14T08:32:39.673Z,52.14
2023-05-14T08:35:42.903Z,51.76
2023-05-14T08:38:46.175Z,52.34
2023-05-14T08:41:49.666Z,51.98
2023-05-14T08:45:03.716Z,52.64
2023-05-14T08:48:11.323Z,52.56
2023-05-14T08:51:14.851Z,53.34
2023-05-14T08:54:18.636Z,52.96
2023-05-14T08:57:26.821Z,53.37
2023-05-14T09:00:30.208Z,52.84
2023-05-14T09:03:34.014Z,53.03
2023-05-14T09:06:38.008Z,53.31
2023-05-14T09:09:41.606Z,52.96
2023-05-14T09:12:44.764Z,52.51
2023-05-14T09:15:51.499Z,52.12
2023-05-14T09:18:55.046Z,52.54
2023-05-14T09:22:01.567Z,51.69
2023-05-14T09:25:11.386Z,51.92
2023-05-14T09:28:17.539Z,51.61
2023-05-14T09:31:20.791Z,50.89
2023-05-14T09:34:24.621Z,51.51
2023-05-14T09:37:28.751Z,51.80
2023-05-14T09:40:31.619Z,49.49
2023-05-14T09:43:34.387Z,48.95
2023-05-14T09:46:37.422Z,48.02
2023-05-14T09:49:40.543Z,48.47
2023-05-14T09:52:43.511Z,48.17
2023-05-14T09:55:47.252Z,48.07
2023-05-14T09:58:50.168Z,46.72
2023-05-14T10:01:54.431Z,46.69
2023-05-14T10:05:02.798Z,46.57
2023-05-14T10:08:13.790Z,45.83
2023-05-14T10:11:25.355Z,46.28
2023-05-14T10:14:36.519Z,45.34
2023-05-14T10:17:43.595Z,45.96
2023-05-14T10:21:06.568Z,44.60
2023-05-14T10:24:10.600Z,44.13
2023-05-14T10:27:15.619Z,44.65
2023-05-14T10:30:25.981Z,44.05
2023-05-14T10:33:29.644Z,44.63
2023-05-14T10:36:36.039Z,45.10
2023-05-14T10:39:59.535Z,45.24
2023-05-14T10:43:04.498Z,44.21
2023-05-14T10:46:10.348Z,45.08
2023-05-14T10:49:25.792Z,44.43
2023-05-14T10:52:46.658Z,43.66
2023-05-14T10:55:58.157Z,43.98
2023-05-14T10:59:29.554Z,44.20
2023-05-14T11:02:57.091Z,44.20
2023-05-14T11:06:04.272Z,44.07
2023-05-14T11:09:08.519Z,43.09
2023-05-14T11:12:12.410Z,43.57
2023-05-14T11:15:20.562Z,43.89
2023-05-14T11:18:31.918Z,43.47
2023-05-14T11:21:39.780Z,43.04
2023-05-14T11:24:43.731Z,43.21
2023-05-14T11:27:48.419Z,42.95
2023-05-14T11:31:01.033Z,42.83
2023-05-14T11:34:06.141Z,42.79
2023-05-14T11:37:12.256Z,42.43
2023-05-14T11:40:17.181Z,41.95
2023-05-14T11:43:20.768Z,42.14
2023-05-14T11:46:26.775Z,41.95
2023-05-14T11:49:30.403Z,40.78
2023-05-14T11:52:39.619Z,38.87
2023-05-14T11:55:42.641Z,38.50
2023-05-14T11:58:49.605Z,39.57
2023-05-14T12:01:52.908Z,39.52
2023-05-14T12:04:56.087Z,39.16
2023-05-14T12:07:59.108Z,39.50
2023-05-14T12:11:03.945Z,38.52
2023-05-14T12:14:24.405Z,38.14
2023-05-14T12:17:28.033Z,38.19
2023-05-14T12:20:31.673Z,38.43
2023-05-14T12:23:34.968Z,39.31
2023-05-14T12:26:39.124Z,39.94
2023-05-14T12:29:43.633Z,40.16
2023-05-14T12:32:47.194Z,40.21
2023-05-14T12:35:50.861Z,40.79
2023-05-14T12:39:02.044Z,40.60
2023-05-14T12:42:05.290Z,40.68
2023-05-14T12:45:09.034Z,40.91
2023-05-14T12:48:13.377Z,41.62
2023-05-14T12:51:16.803Z,42.03
2023-05-14T12:54:20.152Z,42.58
2023-05-14T12:57:23.580Z,43.14
2023-05-14T13:00:27.264Z,43.96
2023-05-14T13:03:30.843Z,44.54
2023-05-14T13:06:34.276Z,46.05
2023-05-14T13:09:40.281Z,47.35
2023-05-14T13:12:43.947Z,47.97
2023-05-14T13:15:47.556Z,48.77
2023-05-14T13:18:51.401Z,49.56
2023-05-14T13:21:55.144Z,51.79
2023-05-14T13:24:59.129Z,53.42
2023-05-14T13:28:02.314Z,53.09
2023-05-14T13:31:10.595Z,52.29
2023-05-14T13:34:13.780Z,50.73
2023-05-14T13:37:17.165Z,52.17
2023-05-14T13:40:20.436Z,50.53
2023-05-14T13:43:24.464Z,52.52
2023-05-14T13:46:28.170Z,50.87
2023-05-14T13:49:31.954Z,49.59
2023-05-14T13:52:36.021Z,49.67
2023-05-14T13:55:39.605Z,50.21
2023-05-14T13:58:42.918Z,48.57
2023-05-14T14:01:48.139Z,47.87
2023-05-14T14:04:51.809Z,47.44
2023-05-14T14:08:00.957Z,48.26
2023-05-14T14:11:13.315Z,50.00
2023-05-14T14:14:17.704Z,49.72
2023-05-14T14:17:21.184Z,48.89
2023-05-14T14:20:24.685Z,50.11
2023-05-14T14:23:27.856Z,50.34
2023-05-14T14:26:31.112Z,49.29
2023-05-14T14:29:34.720Z,50.16
2023-05-14T14:32:37.926Z,49.38
2023-05-14T14:35:41.151Z,50.60
2023-05-14T14:38:44.456Z,51.81
2023-05-14T14:41:48.034Z,52.81
2023-05-14T14:44:51.152Z,56.35
2023-05-14T14:48:27.873Z,55.65
2023-05-14T14:51:31.525Z,57.24
2023-05-14T14:54:34.497Z,58.70
2023-05-14T14:57:37.893Z,58.45
2023-05-14T15:00:41.263Z,58.28
2023-05-14T15:03:45.758Z,59.49
2023-05-14T15:06:48.949Z,60.63
2023-05-14T15:09:52.119Z,61.63
2023-05-14T15:12:59.672Z,64.58
2023-05-14T15:16:02.676Z,68.83
2023-05-14T15:19:05.990Z,69.00
2023-05-14T15:22:09.438Z,71.58
2023-05-14T15:25:12.513Z,72.54
2023-05-14T15:28:15.814Z,75.64
2023-05-14T15:31:19.202Z,74.43
2023-05-14T15:34:22.371Z,77.35
2023-05-14T15:37:27.078Z,80.42
2023-05-14T15:40:30.649Z,81.27
2023-05-14T15:43:37.503Z,81.50
2023-05-14T15:46:41.254Z,82.46
2023-05-14T15:49:45.090Z,84.39
2023-05-14T15:52:49.184Z,84.88
2023-05-14T15:55:52.571Z,86.45
2023-05-14T15:58:56.282Z,87.23
2023-05-14T16:02:00.054Z,81.93
2023-05-14T16:05:04.154Z,83.14
2023-05-14T16:08:07.443Z,84.04
2023-05-14T16:11:10.829Z,86.40
2023-05-14T16:14:14.303Z,85.05
2023-05-14T16:17:17.675Z,87.92
2023-05-14T16:20:20.863Z,89.01
2023-05-14T16:23:24.133Z,85.58
2023-05-14T16:26:27.410Z,86.81
2023-05-14T16:29:31.516Z,85.09
2023-05-14T16:32:34.810Z,84.77
2023-05-14T16:35:38.070Z,84.45
2023-05-14T16:38:52.322Z,84.14
2023-05-14T16:42:00.385Z,84.26
2023-05-14T16:45:04.380Z,87.89
2023-05-14T16:48:10.746Z,88.02
2023-05-14T16:51:14.120Z,89.51
2023-05-14T16:54:17.489Z,90.57
2023-05-14T16:57:20.765Z,90.64
2023-05-14T17:00:24.450Z,92.02
2023-05-14T17:03:28.251Z,94.40
2023-05-14T17:06:32.141Z,95.54
2023-05-14T17:09:35.956Z,97.10
2023-05-14T17:12:39.317Z,94.83
2023-05-14T17:15:42.827Z,94.90
2023-05-14T17:18:46.208Z,96.04
2023-05-14T17:21:49.472Z,94.46
2023-05-14T17:24:52.536Z,93.26
2023-05-14T17:27:57.038Z,94.19
2023-05-14T17:31:00.062Z,91.79
2023-05-14T17:34:03.291Z,92.58
2023-05-14T17:37:06.785Z,94.36
2023-05-14T17:40:10.260Z,93.68
2023-05-14T17:43:13.774Z,93.54
2023-05-14T17:46:16.856Z,92.84
2023-05-14T17:49:20.029Z,94.50
2023-05-14T17:52:23.406Z,97.21
2023-05-14T17:55:27.297Z,95.96
2023-05-14T17:58:33.741Z,95.20
2023-05-14T18:01:36.938Z,96.53
2023-05-14T18:04:47.675Z,97.96
2023-05-14T18:07:56.181Z,99.52
2023-05-14T18:11:01.401Z,100.00
2023-05-14T18:14:07.960Z,97.85
2023-05-14T18:17:11.802Z,99.14
2023-05-14T18:20:15.136Z,98.33
2023-05-14T18:23:18.830Z,99.02
2023-05-14T18:26:23.446Z,100.00
2023-05-14T18:29:30.513Z,99.81
2023-05-14T18:32:35.792Z,99.64
2023-05-14T18:35:39.326Z,98.20
2023-05-14T18:38:43.109Z,98.14
2023-05-14T18:41:46.708Z,98.62
2023-05-14T18:44:50.179Z,98.89
2023-05-14T18:47:53.619Z,99.41
2023-05-14T18:50:56.927Z,99.33
2023-05-14T18:54:00.510Z,98.76
2023-05-14T18:57:04.432Z,99.14
2023-05-14T19:00:08.525Z,99.74
2023-05-14T19:03:14.817Z,99.46
2023-05-14T19:06:18.357Z,98.72
2023-05-14T19:09:22.144Z,100.00
2023-05-14T19:12:26.950Z,100.00
2023-05-14T19:15:31.164Z,100.00
2023-05-14T19:18:36.183Z,100.00
2023-05-14T19:21:43.146Z,100.00
2023-05-14T19:24:46.623Z,100.00
2023-05-14T19:27:51.656Z,100.00
2023-05-14T19:30:57.353Z,100.00
2023-05-14T19:34:00.574Z,100.00
2023-05-14T19:37:04.271Z,100.00
2023-05-14T19:40:08.664Z,100.00
2023-05-14T19:43:12.262Z,100.00
2023-05-14T19:46:15.925Z,100.00
2023-05-14T19:49:18.980Z,100.00
2023-05-14T19:52:22.103Z,100.00
2023-05-14T19:55:25.913Z,100.00
2023-05-14T19:58:29.042Z,100.00
2023-05-14T20:01:32.789Z,100.00
2023-05-14T20:04:35.948Z,100.00
2023-05-14T20:07:40.353Z,100.00
2023-05-14T20:10:49.000Z,100.00
2023-05-14T20:13:52.381Z,100.00
2023-05-14T20:16:58.450Z,100.00
2023-05-14T20:20:01.808Z,100.00
2023-05-14T20:23:04.999Z,100.00
2023-05-14T20:26:08.183Z,100.00
2023-05-14T20:29:13.826Z,100.00
2023-05-14T20:32:17.068Z,100.00
2023-05-14T20:35:20.490Z,100.00
2023-05-14T20:38:23.616Z,100.00
2023-05-14T20:41:27.054Z,100.00
2023-05-14T20:44:30.688Z,100.00
2023-05-14T20:47:34.450Z,100.00
2023-05-14T20:50:37.766Z,99.38
2023-05-14T20:53:41.408Z,99.42
2023-05-14T20:56:44.838Z,97.59
2023-05-14T20:59:49.103Z,96.63
2023-05-14T21:02:52.816Z,97.25
2023-05-14T21:06:00.707Z,96.38
2023-05-14T21:09:04.406Z,96.99
2023-05-14T21:12:08.609Z,96.27
2023-05-14T21:15:12.506Z,94.85
2023-05-14T21:18:16.283Z,95.08
2023-05-14T21:21:19.967Z,95.34
2023-05-14T21:24:23.760Z,95.34
2023-05-14T21:27:31.246Z,95.39
2023-05-14T21:30:35.031Z,94.78
2023-05-14T21:33:38.924Z,94.52
2023-05-14T21:36:51.060Z,94.80
2023-05-14T21:39:58.782Z,94.67
2023-05-14T21:43:03.190Z,95.81
2023-05-14T21:46:10.924Z,95.00
2023-05-14T21:49:14.818Z,95.81
2023-05-14T21:52:19.637Z,95.84
2023-05-14T21:55:25.023Z,94.51
2023-05-14T21:58:31.820Z,94.08
2023-05-14T22:02:04.963Z,93.84
2023-05-14T22:05:12.791Z,91.99
2023-05-14T22:08:21.671Z,91.78
2023-05-14T22:11:32.272Z,92.45
2023-05-14T22:14:42.972Z,92.42
2023-05-14T22:17:54.073Z,93.04
2023-05-14T22:21:05.486Z,90.91
2023-05-14T22:24:16.543Z,91.69
2023-05-14T22:27:20.742Z,90.68
2023-05-14T22:30:25.251Z,90.67
2023-05-14T22:33:33.608Z,90.97
2023-05-14T22:36:37.540Z,91.08
2023-05-14T22:39:40.921Z,90.80
2023-05-14T22:42:44.960Z,89.95
2023-05-14T22:45:48.504Z,89.92
2023-05-14T22:48:52.249Z,90.19
2023-05-14T22:51:56.089Z,89.76
2023-05-14T22:54:59.827Z,89.74
2023-05-14T22:58:05.359Z,89.78
2023-05-14T23:01:09.974Z,88.55
2023-05-14T23:04:21.510Z,88.96
2023-05-14T23:07:31.694Z,88.46
2023-05-14T23:10:38.744Z,88.03
2023-05-14T23:13:45.799Z,86.91
2023-05-14T23:17:05.672Z,87.46
2023-05-14T23:20:14.002Z,87.46
2023-05-14T23:23:30.960Z,87.02
2023-05-14T23:26:35.857Z,87.45
2023-05-14T23:29:54.796Z,87.56
2023-05-14T23:33:10.209Z,87.46
2023-05-14T23:36:18.150Z,87.99
2023-05-14T23:39:23.365Z,87.56
2023-05-14T23:42:34.002Z,88.04
2023-05-14T23:45:42.974Z,88.70
2023-05-14T23:48:52.754Z,88.09
2023-05-14T23:51:57.351Z,88.69
2023-05-14T23:55:57.090Z,88.02
2023-05-14T23:59:36.361Z,87.32
